createdAt,value
2022-08-08T00:00:53.525Z,101744.38
2022-08-08T00:03:00.810Z,101736.41
2022-08-08T00:06:02.686Z,101739.84
2022-08-08T00:08:49.931Z,101745.03
2022-08-08T00:11:26.450Z,101749.41
2022-08-08T00:14:57.156Z,101748.47
2022-08-08T00:17:22.670Z,101755.47
2022-08-08T00:19:58.486Z,101749.22
2022-08-08T00:22:31.667Z,101753.44
2022-08-08T00:25:04.423Z,101712.31
2022-08-08T00:27:42.133Z,101759.59
2022-08-08T00:30:15.533Z,101761.28
2022-08-08T00:32:47.548Z,101768.25
2022-08-08T00:35:37.656Z,101752.22
2022-08-08T00:38:31.156Z,101765.53
2022-08-08T00:42:08.364Z,101761.03
2022-08-08T00:45:21.559Z,101764.44
2022-08-08T00:48:35.952Z,101770.47
2022-08-08T00:51:38.847Z,101768.56
2022-08-08T00:54:45.949Z,101768.63
2022-08-08T00:57:40.828Z,101772.13
2022-08-08T01:00:13.238Z,101768.56
2022-08-08T01:04:01.885Z,101768.56
2022-08-08T01:06:29.055Z,101765.88
2022-08-08T01:09:35.849Z,101762.38
2022-08-08T01:12:46.940Z,101764.03
2022-08-08T01:15:44.065Z,101765.88
2022-08-08T01:19:25.345Z,101768.63
2022-08-08T01:22:32.343Z,101765.06
2022-08-08T01:25:43.113Z,101764.00
2022-08-08T01:28:28.177Z,101762.13
2022-08-08T01:32:12.739Z,101765.59
2022-08-08T01:35:11.197Z,101758.44
2022-08-08T01:38:15.461Z,101770.69
2022-08-08T01:40:54.335Z,101760.06
2022-08-08T01:43:40.937Z,101745.72
2022-08-08T01:46:29.018Z,101719.66
2022-08-08T01:49:10.828Z,101759.69
2022-08-08T01:52:43.591Z,101769.47
2022-08-08T01:56:04.567Z,101777.34
2022-08-08T01:58:11.101Z,101773.75
2022-08-08T02:00:49.026Z,101774.63
2022-08-08T02:03:49.265Z,101777.28
2022-08-08T02:06:37.030Z,101779.00
2022-08-08T02:10:01.661Z,101784.28
2022-08-08T02:12:19.848Z,101784.28
2022-08-08T02:14:55.767Z,101776.25
2022-08-08T02:17:42.350Z,101781.59
2022-08-08T02:21:02.528Z,101780.69
2022-08-08T02:23:20.058Z,101770.00
2022-08-08T02:25:56.328Z,101776.16
2022-08-08T02:28:48.607Z,101780.53
2022-08-08T02:32:00.772Z,101783.13
2022-08-08T02:35:13.738Z,101784.84
2022-08-08T02:38:02.725Z,101785.59
2022-08-08T02:40:45.334Z,101776.63
2022-08-08T02:44:38.105Z,101789.94
2022-08-08T02:46:58.312Z,101723.34
2022-08-08T02:49:51.250Z,101791.56
2022-08-08T02:53:01.125Z,101791.50
2022-08-08T02:56:03.800Z,101800.28
2022-08-08T02:59:36.875Z,101786.00
2022-08-08T03:02:50.221Z,101770.63
2022-08-08T03:05:44.949Z,101802.53
2022-08-08T03:08:52.115Z,101801.56
2022-08-08T03:12:36.059Z,101805.03
2022-08-08T03:15:56.986Z,101800.47
2022-08-08T03:18:13.614Z,101802.19
2022-08-08T03:20:46.812Z,101813.63
2022-08-08T03:23:19.048Z,101806.47
2022-08-08T03:25:50.205Z,101816.22
2022-08-08T03:28:22.765Z,101810.88
2022-08-08T03:31:07.862Z,101817.91
2022-08-08T03:33:55.647Z,101821.38
2022-08-08T03:36:30.361Z,101811.50
2022-08-08T03:39:07.915Z,101768.53
2022-08-08T03:42:27.937Z,101821.25
2022-08-08T03:44:35.531Z,101832.72
2022-08-08T03:47:14.027Z,101819.56
2022-08-08T03:49:59.805Z,101836.22
2022-08-08T03:52:32.506Z,101829.00
2022-08-08T03:55:19.830Z,101832.63
2022-08-08T03:58:30.523Z,101835.28
2022-08-08T04:01:01.652Z,101846.63
2022-08-08T04:03:58.458Z,101835.94
2022-08-08T04:06:24.684Z,101850.94
2022-08-08T04:08:58.057Z,101848.25
2022-08-08T04:11:27.623Z,101847.38
2022-08-08T04:14:33.065Z,101668.47
2022-08-08T04:16:49.457Z,101843.53
2022-08-08T04:19:24.004Z,101858.66
2022-08-08T04:21:54.210Z,101858.66
2022-08-08T04:24:29.281Z,101863.06
2022-08-08T04:27:00.966Z,101863.13
2022-08-08T04:29:33.211Z,101865.75
2022-08-08T04:32:06.678Z,101860.38
2022-08-08T04:34:42.898Z,101862.28
2022-08-08T04:37:26.377Z,101853.25
2022-08-08T04:40:06.676Z,101876.34
2022-08-08T04:42:37.542Z,101871.09
2022-08-08T04:45:24.426Z,101869.28
2022-08-08T04:47:53.880Z,101872.03
2022-08-08T04:50:25.367Z,101835.44
2022-08-08T04:53:00.710Z,101871.38
2022-08-08T04:55:47.828Z,101875.06
2022-08-08T04:58:22.633Z,101872.59
2022-08-08T05:00:51.604Z,101873.69
2022-08-08T05:04:08.190Z,101872.09
2022-08-08T05:06:13.309Z,101877.63
2022-08-08T05:08:51.536Z,101877.81
2022-08-08T05:11:24.592Z,101846.66
2022-08-08T05:14:01.079Z,101874.63
2022-08-08T05:16:54.355Z,101886.28
2022-08-08T05:20:10.731Z,101890.00
2022-08-08T05:22:07.310Z,101895.50
2022-08-08T05:24:37.427Z,101888.59
2022-08-08T05:27:06.533Z,101882.69
2022-08-08T05:29:36.709Z,101868.59
2022-08-08T05:32:07.579Z,101887.47
2022-08-08T05:34:38.501Z,101890.38
2022-08-08T05:37:15.988Z,101891.44
2022-08-08T05:39:51.260Z,101899.50
2022-08-08T05:42:25.592Z,101896.16
2022-08-08T05:45:00.616Z,101892.69
2022-08-08T05:47:41.560Z,101907.97
2022-08-08T05:50:19.115Z,101905.50
2022-08-08T05:52:49.147Z,101897.53
2022-08-08T05:55:17.050Z,101898.47
2022-08-08T05:58:04.293Z,101909.28
2022-08-08T06:00:36.348Z,101904.09
2022-08-08T06:03:24.954Z,101896.94
2022-08-08T06:05:56.719Z,101902.50
2022-08-08T06:08:34.549Z,101911.78
2022-08-08T06:11:04.359Z,101911.19
2022-08-08T06:13:36.300Z,101896.13
2022-08-08T06:16:19.221Z,101916.00
2022-08-08T06:18:55.412Z,101906.38
2022-08-08T06:21:32.551Z,101922.63
2022-08-08T06:24:23.212Z,101916.59
2022-08-08T06:27:04.802Z,101925.59
2022-08-08T06:29:59.563Z,101909.75
2022-08-08T06:32:30.931Z,101933.16
2022-08-08T06:36:03.906Z,101918.09
2022-08-08T06:37:57.965Z,101918.38
2022-08-08T06:40:30.461Z,101929.31
2022-08-08T06:43:05.656Z,101937.34
2022-08-08T06:45:36.537Z,101930.41
2022-08-08T06:48:08.634Z,101938.47
2022-08-08T06:50:39.538Z,101942.94
2022-08-08T06:53:14.077Z,101947.53
2022-08-08T06:56:01.908Z,101892.25
2022-08-08T06:58:33.766Z,101945.06
2022-08-08T07:01:24.542Z,101952.34
2022-08-08T07:04:37.357Z,101949.03
2022-08-08T07:06:51.668Z,101946.56
2022-08-08T07:09:21.881Z,101936.91
2022-08-08T07:11:59.252Z,101946.13
2022-08-08T07:14:34.847Z,101942.06
2022-08-08T07:17:09.514Z,101947.75
2022-08-08T07:19:56.004Z,101936.59
2022-08-08T07:22:38.807Z,101943.41
2022-08-08T07:25:11.054Z,101946.69
2022-08-08T07:28:02.597Z,101955.41
2022-08-08T07:30:35.585Z,101938.84
2022-08-08T07:33:05.125Z,101955.88
2022-08-08T07:35:35.564Z,101957.69
2022-08-08T07:38:18.257Z,101946.09
2022-08-08T07:43:32.347Z,101947.44
2022-08-08T07:46:23.630Z,101955.97
2022-08-08T07:48:52.947Z,101951.28
2022-08-08T07:51:45.348Z,101954.59
2022-08-08T07:54:26.464Z,101946.56
2022-08-08T07:57:04.147Z,101952.34
2022-08-08T07:59:48.541Z,101953.94
2022-08-08T08:02:35.397Z,101942.84
2022-08-08T08:05:15.384Z,101957.38
2022-08-08T08:07:53.184Z,101959.13
2022-08-08T08:10:30.409Z,101967.28
2022-08-08T08:13:26.042Z,101977.38
2022-08-08T08:16:17.156Z,101944.44
2022-08-08T08:18:55.547Z,101967.31
2022-08-08T08:21:44.071Z,101967.41
2022-08-08T08:24:16.346Z,101966.19
2022-08-08T08:26:52.925Z,101969.22
2022-08-08T08:29:23.003Z,101965.44
2022-08-08T08:31:53.989Z,101970.94
2022-08-08T08:34:32.407Z,101979.84
2022-08-08T08:37:03.351Z,101966.31
2022-08-08T08:40:00.315Z,101981.94
2022-08-08T08:42:35.118Z,101979.41
2022-08-08T08:45:21.594Z,101960.56
2022-08-08T08:47:54.226Z,101969.59
2022-08-08T08:50:32.084Z,101966.88
2022-08-08T08:53:54.482Z,101971.09
2022-08-08T08:56:01.952Z,101977.50
2022-08-08T08:58:33.249Z,101973.94
2022-08-08T09:01:10.473Z,101976.44
2022-08-08T09:03:47.834Z,101977.78
2022-08-08T09:06:28.197Z,101928.00
2022-08-08T09:09:07.499Z,101977.53
2022-08-08T09:12:01.409Z,101971.69
2022-08-08T09:14:34.782Z,101971.06
2022-08-08T09:17:09.668Z,101968.59
2022-08-08T09:22:00.131Z,101975.81
2022-08-08T09:22:28.609Z,101969.19
2022-08-08T09:24:59.987Z,101973.28
2022-08-08T09:27:55.984Z,101967.91
2022-08-08T09:30:20.208Z,101970.69
2022-08-08T09:33:55.493Z,101972.25
2022-08-08T09:35:49.751Z,101956.19
2022-08-08T09:38:33.125Z,101974.16
2022-08-08T09:41:06.743Z,101966.25
2022-08-08T09:44:05.322Z,101973.59
2022-08-08T09:46:45.611Z,101972.00
2022-08-08T09:49:42.204Z,101960.38
2022-08-08T09:52:55.557Z,101977.97
2022-08-08T09:55:10.067Z,101973.19
2022-08-08T09:57:55.657Z,101946.13
2022-08-08T10:00:56.724Z,101940.38
2022-08-08T10:03:20.027Z,101980.03
2022-08-08T10:05:48.455Z,101984.56
2022-08-08T10:08:19.818Z,101978.78
2022-08-08T10:10:51.204Z,101987.41
2022-08-08T10:13:26.046Z,101978.53
2022-08-08T10:16:03.542Z,101989.63
2022-08-08T10:18:34.511Z,101978.84
2022-08-08T10:21:23.040Z,101983.50
2022-08-08T10:23:58.885Z,101983.13
2022-08-08T10:26:52.319Z,101981.91
2022-08-08T10:29:56.926Z,101985.50
2022-08-08T10:32:50.684Z,101972.22
2022-08-08T10:36:08.801Z,101990.00
2022-08-08T10:38:16.754Z,101981.44
2022-08-08T10:40:46.453Z,101990.34
2022-08-08T10:43:14.665Z,101993.13
2022-08-08T10:45:55.745Z,101986.59
2022-08-08T10:48:38.789Z,101984.97
2022-08-08T10:51:24.177Z,101963.00
2022-08-08T10:53:57.282Z,101975.59
2022-08-08T10:56:32.276Z,101978.69
2022-08-08T10:59:01.640Z,101983.22
2022-08-08T11:01:33.661Z,101984.94
2022-08-08T11:04:10.394Z,101970.38
2022-08-08T11:06:41.935Z,101976.47
2022-08-08T11:09:21.321Z,101971.00
2022-08-08T11:12:05.565Z,101980.00
2022-08-08T11:14:57.237Z,101977.84
2022-08-08T11:18:01.380Z,101986.16
2022-08-08T11:20:24.996Z,101980.69
2022-08-08T11:22:57.459Z,101984.69
2022-08-08T11:25:52.963Z,101971.75
2022-08-08T11:28:25.554Z,101988.03
2022-08-08T11:30:57.047Z,101988.19
2022-08-08T11:33:35.333Z,101979.28
2022-08-08T11:36:20.328Z,101986.94
2022-08-08T11:38:55.226Z,101990.38
2022-08-08T11:41:24.940Z,101975.06
2022-08-08T11:43:57.883Z,101987.63
2022-08-08T11:46:30.571Z,101989.38
2022-08-08T11:49:01.505Z,101983.59
2022-08-08T11:51:39.879Z,101981.97
2022-08-08T11:54:27.395Z,101991.16
2022-08-08T11:57:13.978Z,101990.97
2022-08-08T12:00:00.933Z,101981.22
2022-08-08T12:02:34.244Z,101985.25
2022-08-08T12:05:05.217Z,101984.66
2022-08-08T12:07:49.544Z,101973.75
2022-08-08T12:10:21.909Z,101991.88
2022-08-08T12:12:51.878Z,101987.53
2022-08-08T12:15:42.498Z,101979.66
2022-08-08T12:18:21.412Z,101986.28
2022-08-08T12:20:53.091Z,101990.72
2022-08-08T12:23:42.657Z,101987.31
2022-08-08T12:26:17.162Z,101979.94
2022-08-08T12:28:57.146Z,101987.78
2022-08-08T12:31:39.427Z,101969.31
2022-08-08T12:34:37.578Z,101978.44
2022-08-08T12:37:08.664Z,101986.00
2022-08-08T12:39:59.944Z,101954.31
2022-08-08T12:42:33.873Z,101968.75
2022-08-08T12:45:54.930Z,101981.84
2022-08-08T12:48:09.651Z,101976.13
2022-08-08T12:50:46.824Z,101992.44
2022-08-08T12:53:30.155Z,101969.66
2022-08-08T12:56:18.997Z,101966.22
2022-08-08T12:58:55.242Z,101967.03
2022-08-08T13:01:36.840Z,101993.25
2022-08-08T13:04:18.983Z,101989.00
2022-08-08T13:07:02.825Z,101986.72
2022-08-08T13:09:33.929Z,101983.94
2022-08-08T13:12:29.604Z,101990.66
2022-08-08T13:14:59.369Z,101970.06
2022-08-08T13:18:09.717Z,101988.31
2022-08-08T13:20:18.548Z,101987.25
2022-08-08T13:22:47.579Z,101992.81
2022-08-08T13:25:16.703Z,101989.56
2022-08-08T13:27:53.031Z,101983.66
2022-08-08T13:30:26.409Z,101995.53
2022-08-08T13:32:57.559Z,101997.41
2022-08-08T13:35:38.295Z,102005.19
2022-08-08T13:38:08.467Z,101983.81
2022-08-08T13:40:41.436Z,101988.88
2022-08-08T13:43:16.140Z,101995.13
2022-08-08T13:45:47.622Z,101988.41
2022-08-08T13:48:25.111Z,101994.53
2022-08-08T13:50:57.942Z,101972.78
2022-08-08T13:53:53.243Z,101996.09
2022-08-08T13:56:32.318Z,101985.59
2022-08-08T13:59:01.774Z,101969.94
2022-08-08T14:01:32.664Z,102008.63
2022-08-08T14:04:23.086Z,102009.00
2022-08-08T14:06:59.352Z,102009.34
2022-08-08T14:10:05.882Z,102008.97
2022-08-08T14:12:28.206Z,101994.13
2022-08-08T14:14:58.859Z,102002.50
2022-08-08T14:17:58.105Z,102005.94
2022-08-08T14:20:57.910Z,102020.66
2022-08-08T14:23:10.068Z,102013.63
2022-08-08T14:25:46.610Z,102007.16
2022-08-08T14:28:23.623Z,101978.28
2022-08-08T14:31:09.593Z,102004.22
2022-08-08T14:33:39.274Z,102018.72
2022-08-08T14:36:11.460Z,102010.81
2022-08-08T14:38:52.699Z,102004.06
2022-08-08T14:41:53.140Z,101998.09
2022-08-08T14:44:21.009Z,102003.47
2022-08-08T14:47:01.276Z,102004.28
2022-08-08T14:49:37.842Z,102006.81
2022-08-08T14:52:21.292Z,102007.91
2022-08-08T14:54:51.002Z,102008.81
2022-08-08T14:57:20.490Z,102014.63
2022-08-08T14:59:56.273Z,101908.34
2022-08-08T15:02:31.255Z,102006.88
2022-08-08T15:05:08.116Z,102006.97
2022-08-08T15:07:40.200Z,102017.50
2022-08-08T15:10:12.545Z,102010.25
2022-08-08T15:12:41.906Z,102010.44
2022-08-08T15:15:18.722Z,101999.44
2022-08-08T15:18:03.877Z,102009.78
2022-08-08T15:20:32.180Z,102021.16
2022-08-08T15:23:01.648Z,102012.47
2022-08-08T15:25:33.190Z,102024.19
2022-08-08T15:28:32.773Z,102014.00
2022-08-08T15:30:50.765Z,102029.75
2022-08-08T15:33:21.095Z,102028.72
2022-08-08T15:36:03.731Z,102028.03
2022-08-08T15:38:31.794Z,102037.09
2022-08-08T15:41:00.661Z,102037.63
2022-08-08T15:43:35.604Z,102029.84
2022-08-08T15:46:04.977Z,102012.84
2022-08-08T15:48:34.468Z,102032.56
2022-08-08T15:51:06.231Z,102043.19
2022-08-08T15:53:48.968Z,102039.50
2022-08-08T15:56:20.068Z,102038.03
2022-08-08T15:58:50.224Z,102039.00
2022-08-08T16:01:18.516Z,102042.53
2022-08-08T16:03:51.467Z,102032.16
2022-08-08T16:06:28.808Z,102040.63
2022-08-08T16:13:01.954Z,102045.44
2022-08-08T16:13:20.913Z,102035.91
2022-08-08T16:14:39.061Z,102019.00
2022-08-08T16:17:57.682Z,102035.84
2022-08-08T16:20:13.479Z,102029.59
2022-08-08T16:22:42.494Z,102032.19
2022-08-08T16:25:17.512Z,102032.22
2022-08-08T16:27:56.988Z,102035.06
2022-08-08T16:30:32.432Z,102034.25
2022-08-08T16:33:04.697Z,102035.84
2022-08-08T16:35:36.512Z,101998.50
2022-08-08T16:38:04.519Z,102047.31
2022-08-08T16:40:36.629Z,102041.91
2022-08-08T16:43:05.942Z,102045.59
2022-08-08T16:46:39.279Z,102046.69
2022-08-08T16:48:24.574Z,102004.41
2022-08-08T16:51:01.894Z,102039.28
2022-08-08T16:55:06.465Z,102051.16
2022-08-08T16:56:18.230Z,101760.56
2022-08-08T16:58:47.313Z,102045.91
2022-08-08T17:01:17.798Z,102047.13
2022-08-08T17:04:01.464Z,102055.25
2022-08-08T17:06:43.251Z,102057.53
2022-08-08T17:09:14.987Z,102033.91
2022-08-08T17:11:49.034Z,102038.41
2022-08-08T17:14:27.004Z,102054.81
2022-08-08T17:17:02.485Z,102053.94
2022-08-08T17:19:41.005Z,102063.13
2022-08-08T17:22:12.436Z,102076.34
2022-08-08T17:24:40.932Z,102052.66
2022-08-08T17:27:08.963Z,102075.50
2022-08-08T17:29:43.377Z,102074.25
2022-08-08T17:32:12.208Z,102076.34
2022-08-08T17:35:52.958Z,102080.03
2022-08-08T17:37:32.580Z,102079.97
2022-08-08T17:40:10.496Z,102077.03
2022-08-08T17:42:41.204Z,102083.00
2022-08-08T17:45:23.660Z,102087.97
2022-08-08T17:47:54.088Z,102093.75
2022-08-08T17:50:24.094Z,102036.34
2022-08-08T17:52:53.961Z,102092.50
2022-08-08T17:56:06.837Z,101954.09
2022-08-08T17:58:13.782Z,102097.38
2022-08-08T18:00:41.894Z,102096.63
2022-08-08T18:03:15.849Z,102106.53
2022-08-08T18:05:49.210Z,102108.41
2022-08-08T18:08:40.870Z,102090.75
2022-08-08T18:11:11.689Z,102115.81
2022-08-08T18:13:42.053Z,102111.44
2022-08-08T18:16:11.556Z,102114.13
2022-08-08T18:18:42.675Z,102114.22
2022-08-08T18:21:24.902Z,102113.34
2022-08-08T18:24:01.001Z,102084.97
2022-08-08T18:26:30.431Z,102123.28
2022-08-08T18:28:58.474Z,102093.91
2022-08-08T18:31:28.727Z,102117.06
2022-08-08T18:34:12.247Z,102117.06
2022-08-08T18:36:45.161Z,102122.44
2022-08-08T18:39:16.457Z,102124.22
2022-08-08T18:42:01.098Z,102125.09
2022-08-08T18:44:35.864Z,102115.28
2022-08-08T18:47:04.806Z,102126.88
2022-08-08T18:49:57.389Z,102125.09
2022-08-08T18:52:23.343Z,102142.91
2022-08-08T18:54:59.273Z,102135.78
2022-08-08T18:57:40.961Z,102126.78
2022-08-08T19:00:16.507Z,102141.91
2022-08-08T19:02:56.566Z,102153.50
2022-08-08T19:05:30.468Z,102153.47
2022-08-08T19:08:04.171Z,102161.47
2022-08-08T19:10:33.560Z,102162.34
2022-08-08T19:13:03.237Z,102162.31
2022-08-08T19:15:33.871Z,102161.28
2022-08-08T19:18:33.446Z,102173.59
2022-08-08T19:20:54.499Z,102167.25
2022-08-08T19:23:22.879Z,102177.00
2022-08-08T19:26:01.515Z,102183.22
2022-08-08T19:28:36.609Z,102180.50
2022-08-08T19:31:08.933Z,102186.72
2022-08-08T19:33:51.997Z,102141.09
2022-08-08T19:36:28.289Z,102191.88
2022-08-08T19:38:56.966Z,102197.94
2022-08-08T19:41:30.537Z,102192.53
2022-08-08T19:44:04.140Z,102179.97
2022-08-08T19:46:40.659Z,102196.00
2022-08-08T19:49:09.606Z,102210.06
2022-08-08T19:51:41.549Z,102205.47
2022-08-08T19:54:12.788Z,102209.88
2022-08-08T19:56:48.908Z,102210.75
2022-08-08T19:59:18.879Z,102219.50
2022-08-08T20:02:03.527Z,102227.44
2022-08-08T20:04:33.025Z,102222.03
2022-08-08T20:07:05.069Z,102172.75
2022-08-08T20:09:56.293Z,102230.75
2022-08-08T20:12:32.731Z,102230.59
2022-08-08T20:15:14.145Z,102237.59
2022-08-08T20:17:45.343Z,102234.91
2022-08-08T20:20:19.183Z,102195.53
2022-08-08T20:22:53.732Z,102239.13
2022-08-08T20:25:29.605Z,102237.13
2022-08-08T20:28:07.000Z,102243.19
2022-08-08T20:30:55.651Z,102251.00
2022-08-08T20:35:57.016Z,102224.88
2022-08-08T20:38:32.731Z,102254.34
2022-08-08T20:41:05.432Z,102246.19
2022-08-08T20:43:43.672Z,102245.16
2022-08-08T20:46:16.196Z,102258.44
2022-08-08T20:48:47.861Z,102265.50
2022-08-08T20:51:16.058Z,102270.03
2022-08-08T20:54:00.176Z,102272.75
2022-08-08T20:56:35.290Z,102277.00
2022-08-08T20:59:09.214Z,102272.38
2022-08-08T21:02:06.628Z,102270.41
2022-08-08T21:04:27.322Z,102272.94
2022-08-08T21:06:56.263Z,102259.38
2022-08-08T21:09:31.433Z,102262.00
2022-08-08T21:12:03.053Z,102273.56
2022-08-08T21:14:34.424Z,102274.38
2022-08-08T21:17:06.426Z,102276.03
2022-08-08T21:19:45.217Z,102263.34
2022-08-08T21:22:15.714Z,102274.09
2022-08-08T21:24:52.682Z,102275.72
2022-08-08T21:28:06.398Z,102282.63
2022-08-08T21:30:18.545Z,102278.09
2022-08-08T21:32:52.242Z,102236.78
2022-08-08T21:36:14.784Z,102287.72
2022-08-08T21:38:16.794Z,102275.09
2022-08-08T21:40:55.964Z,102279.66
2022-08-08T21:43:33.243Z,102240.06
2022-08-08T21:48:05.839Z,102285.66
2022-08-08T21:48:54.003Z,102289.94
2022-08-08T21:54:18.739Z,102292.44
2022-08-08T21:54:32.948Z,102284.19
2022-08-08T21:57:01.005Z,102297.44
2022-08-08T21:59:44.105Z,102288.53
2022-08-08T22:02:19.646Z,102288.41
2022-08-08T22:04:51.481Z,102304.25
2022-08-08T22:07:19.658Z,102282.72
2022-08-08T22:09:47.618Z,102254.84
2022-08-08T22:12:16.869Z,102304.00
2022-08-08T22:14:50.074Z,102298.56
2022-08-08T22:17:21.957Z,102304.69
2022-08-08T22:20:12.215Z,102313.50
2022-08-08T22:22:39.220Z,102308.09
2022-08-08T22:25:12.325Z,102313.31
2022-08-08T22:28:03.986Z,102310.59
2022-08-08T22:30:40.443Z,102322.91
2022-08-08T22:34:11.033Z,102323.69
2022-08-08T22:36:05.663Z,102317.38
2022-08-08T22:38:48.500Z,102310.06
2022-08-08T22:41:21.458Z,102310.94
2022-08-08T22:44:02.102Z,102319.78
2022-08-08T22:46:33.094Z,102316.16
2022-08-08T22:49:03.513Z,102329.34
2022-08-08T22:51:34.980Z,102322.97
2022-08-08T22:54:31.844Z,102335.47
2022-08-08T22:56:59.387Z,102331.00
2022-08-08T22:59:36.070Z,102337.97
2022-08-08T23:02:19.752Z,102330.66
2022-08-08T23:04:57.932Z,102326.19
2022-08-08T23:07:51.982Z,102340.34
2022-08-08T23:10:21.314Z,102338.34
2022-08-08T23:12:51.587Z,102341.94
2022-08-08T23:16:37.967Z,102330.16
2022-08-08T23:18:11.869Z,102325.63
2022-08-08T23:20:43.762Z,102343.44
2022-08-08T23:23:12.709Z,102337.19
2022-08-08T23:25:47.793Z,102338.00
2022-08-08T23:28:17.755Z,102339.66
2022-08-08T23:30:46.102Z,102335.06
2022-08-08T23:33:19.464Z,102343.88
2022-08-08T23:36:07.827Z,102345.59
2022-08-08T23:38:41.895Z,102295.38
2022-08-08T23:41:23.189Z,102348.16
2022-08-08T23:43:54.221Z,102348.09
2022-08-08T23:49:08.139Z,102342.78
2022-08-08T23:49:15.573Z,102353.28
2022-08-08T23:52:07.154Z,102340.88
2022-08-08T23:54:41.978Z,102350.53
2022-08-08T23:57:26.480Z,102351.44
